sensor_id;sensor_type;location;lat;lon;timestamp;temperature;humidity
53272;DHT22;39160;48.580;7.756;2023-04-29T00:02:13;17.30;99.90
53272;DHT22;39160;48.580;7.756;2023-04-29T00:07:04;17.30;99.90
53272;DHT22;39160;48.580;7.756;2023-04-29T00:11:54;17.20;99.90
53272;DHT22;39160;48.580;7.756;2023-04-29T00:16:45;17.30;99.90
53272;DHT22;39160;48.580;7.756;2023-04-29T00:21:36;17.20;99.90
53272;DHT22;39160;48.580;7.756;2023-04-29T00:26:26;17.20;99.90
53272;DHT22;39160;48.580;7.756;2023-04-29T00:31:17;17.20;99.90
53272;DHT22;39160;48.580;7.756;2023-04-29T00:36:08;17.20;99.90
53272;DHT22;39160;48.580;7.756;2023-04-29T00:40:59;17.20;99.90
53272;DHT22;39160;48.580;7.756;2023-04-29T00:45:50;17.30;99.90
53272;DHT22;39160;48.580;7.756;2023-04-29T00:50:41;17.40;99.90
53272;DHT22;39160;48.580;7.756;2023-04-29T00:55:32;17.40;99.90
53272;DHT22;39160;48.580;7.756;2023-04-29T01:00:23;17.40;99.90
53272;DHT22;39160;48.580;7.756;2023-04-29T01:05:15;17.50;99.90
53272;DHT22;39160;48.580;7.756;2023-04-29T01:15:21;17.40;99.90
53272;DHT22;39160;48.580;7.756;2023-04-29T01:20:12;17.40;99.90
53272;DHT22;39160;48.580;7.756;2023-04-29T01:25:05;17.30;99.90
53272;DHT22;39160;48.580;7.756;2023-04-29T01:30:15;17.20;99.90
53272;DHT22;39160;48.580;7.756;2023-04-29T01:40:47;17.10;99.90
53272;DHT22;39160;48.580;7.756;2023-04-29T01:45:39;17.10;99.90
53272;DHT22;39160;48.580;7.756;2023-04-29T01:50:34;17.10;99.90
53272;DHT22;39160;48.580;7.756;2023-04-29T01:55:24;16.90;99.90
53272;DHT22;39160;48.580;7.756;2023-04-29T02:00:15;16.80;99.90
53272;DHT22;39160;48.580;7.756;2023-04-29T02:05:06;16.80;99.90
53272;DHT22;39160;48.580;7.756;2023-04-29T02:09:57;16.60;99.90
53272;DHT22;39160;48.580;7.756;2023-04-29T02:14:51;16.50;99.90
53272;DHT22;39160;48.580;7.756;2023-04-29T02:19:42;16.40;99.90
53272;DHT22;39160;48.580;7.756;2023-04-29T02:24:33;16.20;99.90
53272;DHT22;39160;48.580;7.756;2023-04-29T02:29:24;16.10;99.90
53272;DHT22;39160;48.580;7.756;2023-04-29T02:34:16;16.00;99.90
53272;DHT22;39160;48.580;7.756;2023-04-29T02:39:07;15.90;99.90
53272;DHT22;39160;48.580;7.756;2023-04-29T02:43:58;15.80;99.90
53272;DHT22;39160;48.580;7.756;2023-04-29T02:48:49;15.80;99.90
53272;DHT22;39160;48.580;7.756;2023-04-29T02:53:40;15.70;99.90
53272;DHT22;39160;48.580;7.756;2023-04-29T02:58:30;15.60;99.90
53272;DHT22;39160;48.580;7.756;2023-04-29T03:03:21;15.50;99.90
53272;DHT22;39160;48.580;7.756;2023-04-29T03:08:12;15.40;99.90
53272;DHT22;39160;48.580;7.756;2023-04-29T03:13:03;15.40;99.90
53272;DHT22;39160;48.580;7.756;2023-04-29T03:17:54;15.50;99.90
53272;DHT22;39160;48.580;7.756;2023-04-29T03:22:45;15.50;99.90
53272;DHT22;39160;48.580;7.756;2023-04-29T03:27:35;15.40;99.90
53272;DHT22;39160;48.580;7.756;2023-04-29T03:32:26;15.40;99.90
53272;DHT22;39160;48.580;7.756;2023-04-29T03:37:17;15.20;99.90
53272;DHT22;39160;48.580;7.756;2023-04-29T03:42:07;15.20;99.90
53272;DHT22;39160;48.580;7.756;2023-04-29T03:46:58;15.10;99.90
53272;DHT22;39160;48.580;7.756;2023-04-29T03:51:49;15.10;99.90
53272;DHT22;39160;48.580;7.756;2023-04-29T03:56:39;15.00;99.90
53272;DHT22;39160;48.580;7.756;2023-04-29T04:01:30;15.00;99.90
53272;DHT22;39160;48.580;7.756;2023-04-29T04:06:21;14.80;99.90
53272;DHT22;39160;48.580;7.756;2023-04-29T04:11:12;14.70;99.90
53272;DHT22;39160;48.580;7.756;2023-04-29T04:16:04;14.70;99.90
53272;DHT22;39160;48.580;7.756;2023-04-29T04:20:55;14.60;99.90
53272;DHT22;39160;48.580;7.756;2023-04-29T04:25:46;14.60;99.90
53272;DHT22;39160;48.580;7.756;2023-04-29T04:30:37;14.60;99.90
53272;DHT22;39160;48.580;7.756;2023-04-29T04:35:27;14.50;99.90
53272;DHT22;39160;48.580;7.756;2023-04-29T04:40:18;14.50;99.90
53272;DHT22;39160;48.580;7.756;2023-04-29T04:45:09;14.40;99.90
53272;DHT22;39160;48.580;7.756;2023-04-29T04:50:00;14.40;99.90
53272;DHT22;39160;48.580;7.756;2023-04-29T04:54:51;14.50;99.90
53272;DHT22;39160;48.580;7.756;2023-04-29T04:59:42;14.40;99.90
53272;DHT22;39160;48.580;7.756;2023-04-29T05:04:32;14.40;99.90
53272;DHT22;39160;48.580;7.756;2023-04-29T05:09:23;14.40;99.90
53272;DHT22;39160;48.580;7.756;2023-04-29T05:14:14;14.40;99.90
53272;DHT22;39160;48.580;7.756;2023-04-29T05:19:04;14.40;99.90
53272;DHT22;39160;48.580;7.756;2023-04-29T05:23:55;14.50;99.90
53272;DHT22;39160;48.580;7.756;2023-04-29T05:28:46;14.40;99.90
53272;DHT22;39160;48.580;7.756;2023-04-29T05:33:36;14.50;99.90
53272;DHT22;39160;48.580;7.756;2023-04-29T05:38:27;14.70;99.90
53272;DHT22;39160;48.580;7.756;2023-04-29T05:43:18;14.80;99.90
53272;DHT22;39160;48.580;7.756;2023-04-29T05:48:09;14.70;99.90
53272;DHT22;39160;48.580;7.756;2023-04-29T05:52:59;14.80;99.90
53272;DHT22;39160;48.580;7.756;2023-04-29T05:57:50;14.70;99.90
53272;DHT22;39160;48.580;7.756;2023-04-29T06:02:41;14.80;99.90
53272;DHT22;39160;48.580;7.756;2023-04-29T06:07:32;14.70;99.90
53272;DHT22;39160;48.580;7.756;2023-04-29T06:12:23;14.70;99.90
53272;DHT22;39160;48.580;7.756;2023-04-29T06:17:13;14.70;99.90
53272;DHT22;39160;48.580;7.756;2023-04-29T06:22:04;14.70;99.90
53272;DHT22;39160;48.580;7.756;2023-04-29T06:26:55;14.80;99.90
53272;DHT22;39160;48.580;7.756;2023-04-29T06:31:45;15.00;99.90
53272;DHT22;39160;48.580;7.756;2023-04-29T06:36:36;15.10;99.90
53272;DHT22;39160;48.580;7.756;2023-04-29T06:41:26;15.10;99.90
53272;DHT22;39160;48.580;7.756;2023-04-29T06:46:17;15.00;99.90
53272;DHT22;39160;48.580;7.756;2023-04-29T06:51:08;15.00;99.90
53272;DHT22;39160;48.580;7.756;2023-04-29T06:55:58;15.00;99.90
53272;DHT22;39160;48.580;7.756;2023-04-29T07:00:50;15.20;99.90
53272;DHT22;39160;48.580;7.756;2023-04-29T07:05:41;15.20;99.90
53272;DHT22;39160;48.580;7.756;2023-04-29T07:10:34;15.30;99.90
53272;DHT22;39160;48.580;7.756;2023-04-29T07:15:26;15.30;99.90
53272;DHT22;39160;48.580;7.756;2023-04-29T07:20:17;15.30;99.90
53272;DHT22;39160;48.580;7.756;2023-04-29T07:25:08;15.30;99.90
53272;DHT22;39160;48.580;7.756;2023-04-29T07:30:00;15.30;99.90
53272;DHT22;39160;48.580;7.756;2023-04-29T07:34:51;15.50;99.90
53272;DHT22;39160;48.580;7.756;2023-04-29T07:39:42;15.50;99.90
53272;DHT22;39160;48.580;7.756;2023-04-29T07:44:32;15.70;99.90
53272;DHT22;39160;48.580;7.756;2023-04-29T07:49:23;15.70;99.90
53272;DHT22;39160;48.580;7.756;2023-04-29T07:54:15;15.70;99.90
53272;DHT22;39160;48.580;7.756;2023-04-29T07:59:06;15.60;99.90
53272;DHT22;39160;48.580;7.756;2023-04-29T08:03:56;15.60;99.90
53272;DHT22;39160;48.580;7.756;2023-04-29T08:08:47;15.60;99.90
53272;DHT22;39160;48.580;7.756;2023-04-29T08:13:38;15.50;99.90
53272;DHT22;39160;48.580;7.756;2023-04-29T08:18:28;15.60;99.90
53272;DHT22;39160;48.580;7.756;2023-04-29T08:23:19;15.60;99.90
53272;DHT22;39160;48.580;7.756;2023-04-29T08:28:10;16.00;99.90
53272;DHT22;39160;48.580;7.756;2023-04-29T08:33:01;16.10;99.90
53272;DHT22;39160;48.580;7.756;2023-04-29T08:37:52;16.20;99.90
53272;DHT22;39160;48.580;7.756;2023-04-29T08:42:44;16.30;99.90
53272;DHT22;39160;48.580;7.756;2023-04-29T08:47:35;16.60;99.90
53272;DHT22;39160;48.580;7.756;2023-04-29T08:52:27;16.90;99.90
53272;DHT22;39160;48.580;7.756;2023-04-29T08:57:17;17.30;99.90
53272;DHT22;39160;48.580;7.756;2023-04-29T09:02:12;17.20;99.90
53272;DHT22;39160;48.580;7.756;2023-04-29T09:07:06;17.30;99.90
53272;DHT22;39160;48.580;7.756;2023-04-29T09:11:57;17.40;99.90
53272;DHT22;39160;48.580;7.756;2023-04-29T09:16:48;17.10;99.90
53272;DHT22;39160;48.580;7.756;2023-04-29T09:21:39;17.00;99.90
53272;DHT22;39160;48.580;7.756;2023-04-29T09:26:42;17.00;99.90
53272;DHT22;39160;48.580;7.756;2023-04-29T09:31:33;17.40;99.90
53272;DHT22;39160;48.580;7.756;2023-04-29T09:41:30;17.60;99.90
53272;DHT22;39160;48.580;7.756;2023-04-29T09:46:21;17.50;99.90
53272;DHT22;39160;48.580;7.756;2023-04-29T09:51:11;17.40;99.90
53272;DHT22;39160;48.580;7.756;2023-04-29T09:56:02;17.60;99.90
53272;DHT22;39160;48.580;7.756;2023-04-29T10:00:53;17.60;99.90
53272;DHT22;39160;48.580;7.756;2023-04-29T10:05:43;17.70;99.90
53272;DHT22;39160;48.580;7.756;2023-04-29T10:10:36;17.90;99.90
53272;DHT22;39160;48.580;7.756;2023-04-29T10:15:51;17.90;99.90
53272;DHT22;39160;48.580;7.756;2023-04-29T10:20:47;18.10;99.90
53272;DHT22;39160;48.580;7.756;2023-04-29T10:25:41;18.00;99.90
53272;DHT22;39160;48.580;7.756;2023-04-29T10:30:34;17.90;99.90
53272;DHT22;39160;48.580;7.756;2023-04-29T10:35:26;17.80;99.90
53272;DHT22;39160;48.580;7.756;2023-04-29T10:40:30;17.90;99.90
53272;DHT22;39160;48.580;7.756;2023-04-29T10:45:31;18.10;99.90
53272;DHT22;39160;48.580;7.756;2023-04-29T10:50:27;18.10;99.90
53272;DHT22;39160;48.580;7.756;2023-04-29T10:55:18;18.20;99.90
53272;DHT22;39160;48.580;7.756;2023-04-29T11:00:21;18.30;99.90
53272;DHT22;39160;48.580;7.756;2023-04-29T11:05:12;18.30;99.80
53272;DHT22;39160;48.580;7.756;2023-04-29T11:10:03;18.60;99.90
53272;DHT22;39160;48.580;7.756;2023-04-29T11:14:57;18.60;99.90
53272;DHT22;39160;48.580;7.756;2023-04-29T11:19:52;18.80;99.60
53272;DHT22;39160;48.580;7.756;2023-04-29T11:29:46;18.40;99.60
53272;DHT22;39160;48.580;7.756;2023-04-29T11:34:36;18.50;99.70
53272;DHT22;39160;48.580;7.756;2023-04-29T11:39:27;18.60;99.40
53272;DHT22;39160;48.580;7.756;2023-04-29T11:44:21;18.80;99.20
53272;DHT22;39160;48.580;7.756;2023-04-29T11:49:12;19.10;99.00
53272;DHT22;39160;48.580;7.756;2023-04-29T11:54:03;18.90;98.90
53272;DHT22;39160;48.580;7.756;2023-04-29T11:58:55;18.80;98.90
53272;DHT22;39160;48.580;7.756;2023-04-29T12:03:50;18.60;98.70
53272;DHT22;39160;48.580;7.756;2023-04-29T12:08:41;18.40;98.70
53272;DHT22;39160;48.580;7.756;2023-04-29T12:13:32;18.50;98.50
53272;DHT22;39160;48.580;7.756;2023-04-29T12:18:25;18.70;98.30
53272;DHT22;39160;48.580;7.756;2023-04-29T12:23:19;18.50;98.20
53272;DHT22;39160;48.580;7.756;2023-04-29T12:28:13;18.60;97.80
53272;DHT22;39160;48.580;7.756;2023-04-29T12:33:03;18.60;97.70
53272;DHT22;39160;48.580;7.756;2023-04-29T12:37:57;19.00;97.50
53272;DHT22;39160;48.580;7.756;2023-04-29T12:42:49;19.10;97.50
53272;DHT22;39160;48.580;7.756;2023-04-29T12:47:39;19.00;97.60
53272;DHT22;39160;48.580;7.756;2023-04-29T12:52:30;19.10;97.50
53272;DHT22;39160;48.580;7.756;2023-04-29T12:57:21;19.10;97.50
53272;DHT22;39160;48.580;7.756;2023-04-29T13:02:12;19.00;97.40
53272;DHT22;39160;48.580;7.756;2023-04-29T13:07:02;18.50;97.40
53272;DHT22;39160;48.580;7.756;2023-04-29T13:11:54;18.30;97.30
53272;DHT22;39160;48.580;7.756;2023-04-29T13:16:44;18.30;97.30
53272;DHT22;39160;48.580;7.756;2023-04-29T13:21:35;18.30;97.10
53272;DHT22;39160;48.580;7.756;2023-04-29T13:26:26;18.30;97.00
53272;DHT22;39160;48.580;7.756;2023-04-29T13:31:16;18.40;96.90
53272;DHT22;39160;48.580;7.756;2023-04-29T13:36:07;18.70;96.90
53272;DHT22;39160;48.580;7.756;2023-04-29T13:40:58;19.00;96.70
53272;DHT22;39160;48.580;7.756;2023-04-29T13:45:48;21.80;96.10
53272;DHT22;39160;48.580;7.756;2023-04-29T13:50:40;23.40;94.90
53272;DHT22;39160;48.580;7.756;2023-04-29T13:55:31;22.60;94.30
53272;DHT22;39160;48.580;7.756;2023-04-29T14:00:25;22.80;94.70
53272;DHT22;39160;48.580;7.756;2023-04-29T14:05:15;23.10;93.20
53272;DHT22;39160;48.580;7.756;2023-04-29T14:10:06;24.30;93.50
53272;DHT22;39160;48.580;7.756;2023-04-29T14:14:57;24.10;92.90
53272;DHT22;39160;48.580;7.756;2023-04-29T14:19:47;23.50;92.70
53272;DHT22;39160;48.580;7.756;2023-04-29T14:24:38;23.10;92.60
53272;DHT22;39160;48.580;7.756;2023-04-29T14:29:28;23.90;92.30
53272;DHT22;39160;48.580;7.756;2023-04-29T14:34:19;23.00;92.30
53272;DHT22;39160;48.580;7.756;2023-04-29T14:39:10;23.10;91.80
53272;DHT22;39160;48.580;7.756;2023-04-29T14:44:01;23.70;91.40
53272;DHT22;39160;48.580;7.756;2023-04-29T14:48:51;22.90;91.40
53272;DHT22;39160;48.580;7.756;2023-04-29T14:53:42;22.00;91.40
53272;DHT22;39160;48.580;7.756;2023-04-29T14:58:32;22.60;90.90
53272;DHT22;39160;48.580;7.756;2023-04-29T15:03:23;23.40;90.90
53272;DHT22;39160;48.580;7.756;2023-04-29T15:08:14;23.90;90.10
53272;DHT22;39160;48.580;7.756;2023-04-29T15:13:04;24.30;89.90
53272;DHT22;39160;48.580;7.756;2023-04-29T15:17:56;24.20;89.00
53272;DHT22;39160;48.580;7.756;2023-04-29T15:22:46;24.80;89.00
53272;DHT22;39160;48.580;7.756;2023-04-29T15:27:37;25.40;88.00
53272;DHT22;39160;48.580;7.756;2023-04-29T15:32:29;24.80;88.10
53272;DHT22;39160;48.580;7.756;2023-04-29T15:37:22;24.80;86.40
53272;DHT22;39160;48.580;7.756;2023-04-29T15:42:12;24.40;86.00
53272;DHT22;39160;48.580;7.756;2023-04-29T15:47:03;22.70;87.50
53272;DHT22;39160;48.580;7.756;2023-04-29T15:51:54;24.20;86.00
53272;DHT22;39160;48.580;7.756;2023-04-29T15:56:44;24.50;85.40
53272;DHT22;39160;48.580;7.756;2023-04-29T16:01:35;25.70;84.40
53272;DHT22;39160;48.580;7.756;2023-04-29T16:06:26;23.00;86.20
53272;DHT22;39160;48.580;7.756;2023-04-29T16:11:16;20.60;90.00
53272;DHT22;39160;48.580;7.756;2023-04-29T16:16:07;19.50;90.80
53272;DHT22;39160;48.580;7.756;2023-04-29T16:20:58;19.20;90.90
53272;DHT22;39160;48.580;7.756;2023-04-29T16:25:48;18.80;90.90
53272;DHT22;39160;48.580;7.756;2023-04-29T16:30:39;18.40;91.30
53272;DHT22;39160;48.580;7.756;2023-04-29T16:35:29;18.30;91.60
53272;DHT22;39160;48.580;7.756;2023-04-29T16:40:20;18.20;91.60
53272;DHT22;39160;48.580;7.756;2023-04-29T16:45:13;17.90;91.80
53272;DHT22;39160;48.580;7.756;2023-04-29T16:50:04;17.70;92.40
53272;DHT22;39160;48.580;7.756;2023-04-29T16:54:57;17.70;92.60
53272;DHT22;39160;48.580;7.756;2023-04-29T16:59:50;17.70;92.80
53272;DHT22;39160;48.580;7.756;2023-04-29T17:04:41;17.70;93.10
53272;DHT22;39160;48.580;7.756;2023-04-29T17:09:32;17.80;93.20
53272;DHT22;39160;48.580;7.756;2023-04-29T17:14:22;17.90;93.30
53272;DHT22;39160;48.580;7.756;2023-04-29T17:19:13;17.60;93.70
53272;DHT22;39160;48.580;7.756;2023-04-29T17:24:04;17.50;94.00
53272;DHT22;39160;48.580;7.756;2023-04-29T17:28:54;17.30;94.50
53272;DHT22;39160;48.580;7.756;2023-04-29T17:33:45;17.00;95.00
53272;DHT22;39160;48.580;7.756;2023-04-29T17:38:44;16.90;95.30
53272;DHT22;39160;48.580;7.756;2023-04-29T17:43:35;16.80;95.70
53272;DHT22;39160;48.580;7.756;2023-04-29T17:48:26;16.80;95.80
53272;DHT22;39160;48.580;7.756;2023-04-29T17:53:17;17.00;95.70
53272;DHT22;39160;48.580;7.756;2023-04-29T17:58:08;16.90;95.90
53272;DHT22;39160;48.580;7.756;2023-04-29T18:02:58;16.70;96.30
53272;DHT22;39160;48.580;7.756;2023-04-29T18:07:49;16.80;96.40
53272;DHT22;39160;48.580;7.756;2023-04-29T18:12:39;17.00;96.30
53272;DHT22;39160;48.580;7.756;2023-04-29T18:17:30;16.90;96.40
53272;DHT22;39160;48.580;7.756;2023-04-29T18:22:21;16.60;96.90
53272;DHT22;39160;48.580;7.756;2023-04-29T18:27:12;16.90;96.60
53272;DHT22;39160;48.580;7.756;2023-04-29T18:32:02;16.60;97.10
53272;DHT22;39160;48.580;7.756;2023-04-29T18:36:53;16.60;97.10
53272;DHT22;39160;48.580;7.756;2023-04-29T18:41:44;16.50;97.40
53272;DHT22;39160;48.580;7.756;2023-04-29T18:46:34;16.30;97.60
53272;DHT22;39160;48.580;7.756;2023-04-29T18:51:25;16.40;97.60
53272;DHT22;39160;48.580;7.756;2023-04-29T18:56:17;16.60;97.40
53272;DHT22;39160;48.580;7.756;2023-04-29T19:01:07;16.40;97.70
53272;DHT22;39160;48.580;7.756;2023-04-29T19:05:58;16.40;97.80
53272;DHT22;39160;48.580;7.756;2023-04-29T19:10:49;16.30;98.00
53272;DHT22;39160;48.580;7.756;2023-04-29T19:15:42;16.30;97.90
53272;DHT22;39160;48.580;7.756;2023-04-29T19:20:33;16.20;98.00
53272;DHT22;39160;48.580;7.756;2023-04-29T19:25:24;16.20;98.20
53272;DHT22;39160;48.580;7.756;2023-04-29T19:30:17;16.20;98.20
53272;DHT22;39160;48.580;7.756;2023-04-29T19:35:08;16.10;98.70
53272;DHT22;39160;48.580;7.756;2023-04-29T19:39:59;16.00;98.60
53272;DHT22;39160;48.580;7.756;2023-04-29T19:44:50;16.10;98.60
53272;DHT22;39160;48.580;7.756;2023-04-29T19:49:40;16.10;98.60
53272;DHT22;39160;48.580;7.756;2023-04-29T19:54:31;16.00;98.80
53272;DHT22;39160;48.580;7.756;2023-04-29T19:59:24;15.90;98.90
53272;DHT22;39160;48.580;7.756;2023-04-29T20:04:14;15.90;99.00
53272;DHT22;39160;48.580;7.756;2023-04-29T20:09:05;15.80;99.10
53272;DHT22;39160;48.580;7.756;2023-04-29T20:13:58;15.70;99.20
53272;DHT22;39160;48.580;7.756;2023-04-29T20:18:49;15.80;99.10
53272;DHT22;39160;48.580;7.756;2023-04-29T20:23:39;15.70;99.40
53272;DHT22;39160;48.580;7.756;2023-04-29T20:28:30;15.80;99.40
53272;DHT22;39160;48.580;7.756;2023-04-29T20:33:21;15.70;99.70
53272;DHT22;39160;48.580;7.756;2023-04-29T20:38:11;15.70;99.40
53272;DHT22;39160;48.580;7.756;2023-04-29T20:43:02;15.80;99.40
53272;DHT22;39160;48.580;7.756;2023-04-29T20:47:53;15.80;99.50
53272;DHT22;39160;48.580;7.756;2023-04-29T20:52:44;15.70;99.60
53272;DHT22;39160;48.580;7.756;2023-04-29T20:57:36;15.70;99.60
53272;DHT22;39160;48.580;7.756;2023-04-29T21:02:27;15.50;99.80
53272;DHT22;39160;48.580;7.756;2023-04-29T21:07:18;15.50;99.90
53272;DHT22;39160;48.580;7.756;2023-04-29T21:12:09;15.50;99.90
53272;DHT22;39160;48.580;7.756;2023-04-29T21:16:59;15.40;99.90
53272;DHT22;39160;48.580;7.756;2023-04-29T21:21:50;15.40;99.90
53272;DHT22;39160;48.580;7.756;2023-04-29T21:26:41;15.30;99.90
53272;DHT22;39160;48.580;7.756;2023-04-29T21:31:32;15.30;99.90
53272;DHT22;39160;48.580;7.756;2023-04-29T21:36:23;15.10;99.90
53272;DHT22;39160;48.580;7.756;2023-04-29T21:41:21;15.10;99.90
53272;DHT22;39160;48.580;7.756;2023-04-29T21:46:14;15.10;99.90
53272;DHT22;39160;48.580;7.756;2023-04-29T21:51:04;15.00;99.90
53272;DHT22;39160;48.580;7.756;2023-04-29T21:55:55;15.00;99.90
53272;DHT22;39160;48.580;7.756;2023-04-29T22:00:46;14.80;99.90
53272;DHT22;39160;48.580;7.756;2023-04-29T22:05:47;14.80;99.90
53272;DHT22;39160;48.580;7.756;2023-04-29T22:10:38;14.70;99.90
53272;DHT22;39160;48.580;7.756;2023-04-29T22:15:30;14.70;99.90
53272;DHT22;39160;48.580;7.756;2023-04-29T22:20:21;14.60;99.90
53272;DHT22;39160;48.580;7.756;2023-04-29T22:25:11;14.60;99.90
53272;DHT22;39160;48.580;7.756;2023-04-29T22:30:02;14.60;99.90
53272;DHT22;39160;48.580;7.756;2023-04-29T22:34:53;14.60;99.90
53272;DHT22;39160;48.580;7.756;2023-04-29T22:39:44;14.50;99.90
53272;DHT22;39160;48.580;7.756;2023-04-29T22:44:34;14.50;99.90
53272;DHT22;39160;48.580;7.756;2023-04-29T22:49:26;14.60;99.90
53272;DHT22;39160;48.580;7.756;2023-04-29T22:54:16;14.60;99.90
53272;DHT22;39160;48.580;7.756;2023-04-29T22:59:07;14.60;99.90
53272;DHT22;39160;48.580;7.756;2023-04-29T23:03:57;14.70;99.90
53272;DHT22;39160;48.580;7.756;2023-04-29T23:08:48;14.60;99.90
53272;DHT22;39160;48.580;7.756;2023-04-29T23:13:39;14.60;99.90
53272;DHT22;39160;48.580;7.756;2023-04-29T23:18:30;14.30;99.90
53272;DHT22;39160;48.580;7.756;2023-04-29T23:23:20;14.30;99.90
53272;DHT22;39160;48.580;7.756;2023-04-29T23:28:11;14.30;99.90
53272;DHT22;39160;48.580;7.756;2023-04-29T23:33:02;14.40;99.90
53272;DHT22;39160;48.580;7.756;2023-04-29T23:37:53;14.40;99.90
53272;DHT22;39160;48.580;7.756;2023-04-29T23:42:43;14.30;99.90
53272;DHT22;39160;48.580;7.756;2023-04-29T23:47:34;14.40;99.90
53272;DHT22;39160;48.580;7.756;2023-04-29T23:52:24;14.30;99.90
53272;DHT22;39160;48.580;7.756;2023-04-29T23:57:15;14.30;99.90
